Time;durP1;ratioP1;P1;durP2;ratioP2;P2;SDS_P1;SDS_P2;PMS_P1;PMS_P2;Temp;Humidity;BMP_temperature;BMP_pressure;BME280_temperature;BME280_humidity;BME280_pressure;Samples;Min_cycle;Max_cycle;Signal;HPM_P1;HPM_P2
2022/07/02 00:01:38;;;;;;;4.93;4.13;;;15.30;92.10;;;;;;5081900;28;20246;-75
2022/07/02 00:04:04;;;;;;;10.00;4.97;;;15.20;92.20;;;;;;5088776;28;20187;-74
2022/07/02 00:06:31;;;;;;;7.77;4.57;;;15.20;92.30;;;;;;5082821;28;20418;-74
2022/07/02 00:08:59;;;;;;;5.00;4.10;;;15.20;92.50;;;;;;5077555;28;20503;-73
2022/07/02 00:11:26;;;;;;;6.23;4.10;;;15.10;92.60;;;;;;5082950;28;20479;-73
2022/07/02 00:13:52;;;;;;;4.93;3.73;;;15.10;92.80;;;;;;5071528;28;20507;-75
2022/07/02 00:16:18;;;;;;;4.10;3.10;;;15.10;93.10;;;;;;5084953;28;20423;-73
2022/07/02 00:18:44;;;;;;;5.60;3.40;;;15.10;93.10;;;;;;5089256;28;20488;-73
2022/07/02 00:21:10;;;;;;;5.27;4.00;;;15.10;93.10;;;;;;5088355;28;20598;-73
2022/07/02 00:23:36;;;;;;;7.90;3.60;;;15.10;93.20;;;;;;5082894;28;20792;-74
2022/07/02 00:26:15;;;;;;;4.70;3.97;;;15.10;93.20;;;;;;5087456;28;20421;-74
2022/07/02 00:28:42;;;;;;;4.40;3.47;;;15.10;93.20;;;;;;5095912;28;20176;-73
2022/07/02 00:31:08;;;;;;;5.07;3.27;;;15.10;93.30;;;;;;5072419;28;20442;-74
2022/07/02 00:33:35;;;;;;;5.83;3.80;;;15.10;93.30;;;;;;5082691;28;20857;-73
2022/07/02 00:36:02;;;;;;;7.03;3.20;;;15.00;93.40;;;;;;5088169;28;20259;-73
2022/07/02 00:38:28;;;;;;;9.00;3.10;;;15.00;93.40;;;;;;5091039;28;20414;-73
2022/07/02 00:40:54;;;;;;;5.00;3.00;;;15.10;93.40;;;;;;5080888;28;20504;-73
2022/07/02 00:43:20;;;;;;;6.00;3.10;;;15.10;93.40;;;;;;5075634;28;20176;-74
2022/07/02 00:45:47;;;;;;;6.63;2.83;;;15.00;93.40;;;;;;5088990;28;20420;-73
2022/07/02 00:48:14;;;;;;;3.37;2.73;;;14.90;93.40;;;;;;5086563;28;20405;-73
2022/07/02 00:50:40;;;;;;;3.57;3.00;;;14.90;93.50;;;;;;5087668;28;20860;-73
2022/07/02 00:53:06;;;;;;;5.30;2.23;;;14.90;93.50;;;;;;5093599;28;20422;-73
2022/07/02 00:55:31;;;;;;;4.70;2.73;;;14.80;93.80;;;;;;5090998;28;20414;-73
2022/07/02 00:57:57;;;;;;;3.47;2.63;;;14.80;93.80;;;;;;5087799;28;20184;-73
2022/07/02 01:00:24;;;;;;;3.90;2.50;;;14.80;94.00;;;;;;5087548;28;20416;-73
2022/07/02 01:02:52;;;;;;;3.10;2.50;;;14.70;94.10;;;;;;5093639;28;20582;-73
2022/07/02 01:05:19;;;;;;;3.80;2.70;;;14.80;94.20;;;;;;5091908;28;20409;-73
2022/07/02 01:10:16;;;;;;;2.77;2.40;;;14.70;94.20;;;;;;5090147;28;20523;-74
2022/07/02 01:10:43;;;;;;;5.07;3.30;;;14.70;94.30;;;;;;5098648;28;20525;-73
2022/07/02 01:13:11;;;;;;;3.33;2.70;;;14.70;94.30;;;;;;5090997;28;20412;-74
2022/07/02 01:15:38;;;;;;;3.80;2.93;;;14.70;94.40;;;;;;5077505;28;20418;-74
2022/07/02 01:18:04;;;;;;;7.43;3.60;;;14.60;94.50;;;;;;5096154;28;20417;-74
2022/07/02 01:20:30;;;;;;;5.70;3.20;;;14.60;94.80;;;;;;5094088;28;20486;-74
2022/07/02 01:22:56;;;;;;;4.87;3.03;;;14.70;94.90;;;;;;5100166;28;20426;-74
2022/07/02 01:25:22;;;;;;;5.90;3.70;;;14.70;94.80;;;;;;5092288;28;20191;-74
2022/07/02 01:27:48;;;;;;;5.60;3.17;;;14.60;94.60;;;;;;5083514;28;20228;-73
2022/07/02 01:30:14;;;;;;;5.30;3.77;;;14.60;94.60;;;;;;5079249;28;20462;-75
2022/07/02 01:32:40;;;;;;;5.43;3.67;;;14.70;94.20;;;;;;5082882;28;20488;-75
2022/07/02 01:35:08;;;;;;;5.20;3.40;;;14.70;93.90;;;;;;5082520;28;20424;-75
2022/07/02 01:37:37;;;;;;;4.50;3.47;;;14.70;93.90;;;;;;5074183;28;20258;-74
2022/07/02 01:40:04;;;;;;;5.40;4.03;;;14.60;94.00;;;;;;5083447;28;20566;-75
2022/07/02 01:42:30;;;;;;;4.37;3.27;;;14.60;94.20;;;;;;5080004;28;20446;-74
2022/07/02 01:44:56;;;;;;;4.30;3.00;;;14.70;94.10;;;;;;5088540;28;20423;-73
2022/07/02 01:47:21;;;;;;;4.40;2.77;;;14.60;94.20;;;;;;5085449;28;20422;-75
2022/07/02 01:49:47;;;;;;;5.20;3.07;;;14.70;94.20;;;;;;5083170;28;20213;-74
2022/07/02 01:52:15;;;;;;;4.00;2.87;;;14.70;94.20;;;;;;5088964;28;20342;-74
2022/07/02 01:54:40;;;;;;;3.27;2.77;;;14.70;94.30;;;;;;5091928;28;20239;-75
2022/07/02 01:57:07;;;;;;;5.47;2.60;;;14.70;94.30;;;;;;5088566;28;20495;-74
2022/07/02 01:59:33;;;;;;;4.00;2.53;;;14.70;94.30;;;;;;5090406;28;20417;-74
2022/07/02 02:01:59;;;;;;;4.93;3.40;;;14.60;94.50;;;;;;5080566;28;20472;-75
2022/07/02 02:04:25;;;;;;;3.10;2.47;;;14.60;94.50;;;;;;5068897;28;20417;-75
2022/07/02 02:06:50;;;;;;;6.20;2.73;;;14.60;94.40;;;;;;5083309;28;20934;-75
2022/07/02 02:09:16;;;;;;;5.70;2.40;;;14.50;94.40;;;;;;5091575;28;20210;-75
2022/07/02 02:11:43;;;;;;;3.87;2.57;;;14.60;94.70;;;;;;5087664;28;20559;-74
2022/07/02 02:14:09;;;;;;;4.87;2.53;;;14.60;94.80;;;;;;5080124;28;20414;-74
2022/07/02 02:16:35;;;;;;;3.27;2.30;;;14.50;94.80;;;;;;5069889;28;20417;-74
2022/07/02 02:19:01;;;;;;;3.40;2.53;;;14.50;94.90;;;;;;5083122;28;20423;-73
2022/07/02 02:21:28;;;;;;;2.50;2.00;;;14.50;95.00;;;;;;5086216;28;20943;-74
2022/07/02 02:23:55;;;;;;;3.53;2.03;;;14.50;95.20;;;;;;5083306;28;20765;-74
2022/07/02 02:26:21;;;;;;;4.07;2.57;;;14.40;95.10;;;;;;5085920;28;20851;-75
2022/07/02 02:28:47;;;;;;;3.70;3.07;;;14.30;95.20;;;;;;5082475;28;20474;-73
2022/07/02 02:31:13;;;;;;;2.77;2.50;;;14.20;95.50;;;;;;5085860;28;20426;-74
2022/07/02 02:33:38;;;;;;;5.83;2.57;;;14.20;95.80;;;;;;5083731;28;20191;-75
2022/07/02 02:36:05;;;;;;;3.90;3.03;;;14.30;96.00;;;;;;5082857;28;20179;-73
2022/07/02 02:38:31;;;;;;;3.77;2.83;;;14.40;95.90;;;;;;5082709;28;20683;-75
2022/07/02 02:40:57;;;;;;;5.50;3.23;;;14.40;95.60;;;;;;5081969;28;20453;-73
2022/07/02 02:43:23;;;;;;;5.37;3.67;;;14.40;94.90;;;;;;5090460;28;20425;-73
2022/07/02 02:45:48;;;;;;;7.20;3.37;;;14.30;94.40;;;;;;5081905;28;20422;-74
2022/07/02 02:48:16;;;;;;;4.07;2.90;;;14.20;94.50;;;;;;5079979;28;20190;-73
2022/07/02 02:50:42;;;;;;;6.93;3.40;;;14.20;94.70;;;;;;5073195;28;20211;-74
2022/07/02 02:53:07;;;;;;;6.30;3.20;;;14.10;94.80;;;;;;5094779;28;20418;-74
2022/07/02 02:55:33;;;;;;;4.27;2.57;;;14.10;95.00;;;;;;5094553;28;20262;-74
2022/07/02 02:57:59;;;;;;;3.67;2.70;;;14.10;95.20;;;;;;5092046;28;20207;-74
2022/07/02 03:00:24;;;;;;;3.10;2.50;;;14.10;95.30;;;;;;5084575;28;20796;-73
2022/07/02 03:02:50;;;;;;;3.60;2.70;;;14.10;95.50;;;;;;5087450;28;20207;-74
2022/07/02 03:05:16;;;;;;;3.93;2.77;;;14.20;95.50;;;;;;5082350;28;20610;-74
2022/07/02 03:07:42;;;;;;;3.10;2.80;;;14.10;95.50;;;;;;5090636;28;20550;-73
2022/07/02 03:10:08;;;;;;;4.10;2.77;;;14.10;95.50;;;;;;5081445;28;20213;-73
2022/07/02 03:12:34;;;;;;;4.40;2.70;;;14.00;95.80;;;;;;5081654;28;20183;-74
2022/07/02 03:14:59;;;;;;;5.50;3.70;;;14.10;95.90;;;;;;5082679;28;21084;-74
2022/07/02 03:17:25;;;;;;;5.37;3.20;;;14.00;95.90;;;;;;5090774;28;20176;-74
2022/07/02 03:19:51;;;;;;;3.67;3.23;;;14.10;95.80;;;;;;5071556;28;20183;-74
2022/07/02 03:22:17;;;;;;;5.27;3.03;;;14.10;95.50;;;;;;5084403;28;20686;-74
2022/07/02 03:24:43;;;;;;;4.90;3.17;;;14.10;95.40;;;;;;5081900;28;20417;-75
2022/07/02 03:27:08;;;;;;;5.83;3.77;;;14.10;95.00;;;;;;5078990;28;20482;-74
2022/07/02 03:29:34;;;;;;;6.53;3.37;;;14.10;94.80;;;;;;5078295;28;20203;-73
2022/07/02 03:32:00;;;;;;;6.50;3.40;;;14.10;94.80;;;;;;5086271;28;20537;-74
2022/07/02 03:34:26;;;;;;;5.10;3.23;;;14.10;95.00;;;;;;5079514;28;20177;-74
2022/07/02 03:36:51;;;;;;;5.60;3.50;;;14.10;95.10;;;;;;5090342;28;20190;-74
2022/07/02 03:39:17;;;;;;;6.00;3.43;;;14.20;95.20;;;;;;5083679;28;20179;-73
2022/07/02 03:41:43;;;;;;;5.13;2.90;;;14.20;95.20;;;;;;5078916;28;20209;-73
2022/07/02 03:44:08;;;;;;;3.80;3.30;;;14.20;95.20;;;;;;5079539;28;20199;-73
2022/07/02 03:46:34;;;;;;;4.30;3.07;;;14.20;95.30;;;;;;5083363;28;20218;-73
2022/07/02 03:49:00;;;;;;;3.33;2.47;;;14.20;95.20;;;;;;5080184;28;20322;-73
2022/07/02 03:51:26;;;;;;;4.53;3.20;;;14.20;95.20;;;;;;5078741;28;20651;-74
2022/07/02 03:53:51;;;;;;;4.03;3.23;;;14.20;95.10;;;;;;5082969;28;20180;-74
2022/07/02 03:56:17;;;;;;;5.43;3.00;;;14.20;95.10;;;;;;5091372;28;20256;-74
2022/07/02 03:58:43;;;;;;;3.10;2.63;;;14.20;95.10;;;;;;5083343;28;20189;-74
2022/07/02 04:01:09;;;;;;;4.30;3.20;;;14.20;95.00;;;;;;5081706;28;20302;-74
2022/07/02 04:03:35;;;;;;;3.33;2.80;;;14.20;95.10;;;;;;5085249;28;20171;-73
2022/07/02 04:06:01;;;;;;;5.23;3.20;;;14.20;95.10;;;;;;5080975;28;20561;-73
2022/07/02 04:08:27;;;;;;;5.00;2.87;;;14.20;95.20;;;;;;5080902;28;20425;-73
2022/07/02 04:10:53;;;;;;;4.97;3.47;;;14.20;95.30;;;;;;5081412;28;20468;-73
2022/07/02 04:13:19;;;;;;;2.73;2.50;;;14.20;95.20;;;;;;5084576;28;20178;-73
2022/07/02 04:15:45;;;;;;;4.67;3.40;;;14.10;95.30;;;;;;5083618;28;20494;-73
2022/07/02 04:18:11;;;;;;;3.07;2.60;;;14.10;95.40;;;;;;5086207;28;20187;-73
2022/07/02 04:20:37;;;;;;;3.70;2.93;;;14.20;95.50;;;;;;5083517;28;20983;-74
2022/07/02 04:23:02;;;;;;;5.13;3.33;;;14.30;95.40;;;;;;5086283;28;20421;-73
2022/07/02 04:25:28;;;;;;;4.50;3.73;;;14.30;95.20;;;;;;5088289;28;20183;-73
2022/07/02 04:27:54;;;;;;;4.73;3.83;;;14.20;94.90;;;;;;5094592;28;20187;-73
2022/07/02 04:30:20;;;;;;;6.10;4.00;;;14.30;94.60;;;;;;5082899;28;20995;-73
2022/07/02 04:32:46;;;;;;;11.23;3.73;;;14.30;94.10;;;;;;5086390;28;20418;-73
2022/07/02 04:35:12;;;;;;;5.10;3.70;;;14.30;94.10;;;;;;5095893;28;20187;-75
2022/07/02 04:37:38;;;;;;;7.07;4.33;;;14.30;94.10;;;;;;5083506;28;20172;-73
2022/07/02 04:40:05;;;;;;;8.30;4.80;;;14.30;94.10;;;;;;5095570;28;20268;-74
2022/07/02 04:42:30;;;;;;;6.93;4.40;;;14.20;94.20;;;;;;5087228;28;20555;-74
2022/07/02 04:44:56;;;;;;;7.93;4.17;;;14.10;94.50;;;;;;5087304;28;20436;-75
2022/07/02 04:47:22;;;;;;;12.77;4.83;;;14.20;94.80;;;;;;5088494;28;20192;-73
2022/07/02 04:49:48;;;;;;;7.00;4.40;;;14.20;94.60;;;;;;5088601;28;20260;-73
2022/07/02 04:52:13;;;;;;;7.93;4.70;;;14.30;94.60;;;;;;5089279;28;20203;-73
2022/07/02 04:54:39;;;;;;;7.80;4.87;;;14.40;94.60;;;;;;5088994;28;20178;-72
2022/07/02 04:57:05;;;;;;;8.97;5.00;;;14.40;94.50;;;;;;5098113;28;20182;-72
2022/07/02 04:59:31;;;;;;;5.77;3.90;;;14.50;94.20;;;;;;5097891;28;20649;-74
2022/07/02 05:01:56;;;;;;;9.60;5.00;;;14.50;94.10;;;;;;5096792;28;20516;-74
2022/07/02 05:04:22;;;;;;;7.80;4.70;;;14.60;94.00;;;;;;5098423;28;20179;-74
2022/07/02 05:06:48;;;;;;;7.00;4.60;;;14.60;94.10;;;;;;5079398;28;20209;-74
2022/07/02 05:09:14;;;;;;;5.57;3.90;;;14.70;94.10;;;;;;5096625;28;20216;-75
2022/07/02 05:11:40;;;;;;;8.40;5.13;;;14.80;93.90;;;;;;5096510;28;20807;-74
2022/07/02 05:14:06;;;;;;;6.87;4.70;;;14.90;93.70;;;;;;5097044;28;21113;-73
2022/07/02 05:16:32;;;;;;;6.17;4.30;;;14.90;93.50;;;;;;5096210;28;20415;-73
2022/07/02 05:18:57;;;;;;;6.20;4.47;;;15.00;93.50;;;;;;5096385;28;20181;-73
2022/07/02 05:21:23;;;;;;;5.93;3.93;;;15.10;93.40;;;;;;5095992;28;20266;-74
2022/07/02 05:23:49;;;;;;;5.90;4.03;;;15.20;93.10;;;;;;5096121;28;20267;-73
2022/07/02 05:26:15;;;;;;;6.30;4.43;;;15.20;93.00;;;;;;5096532;28;20185;-73
2022/07/02 05:28:40;;;;;;;6.10;4.87;;;15.30;93.00;;;;;;5095826;28;20268;-73
2022/07/02 05:31:06;;;;;;;6.47;4.00;;;15.40;92.90;;;;;;5095683;28;20197;-73
2022/07/02 05:33:32;;;;;;;5.90;3.90;;;15.50;92.60;;;;;;5093941;28;20169;-74
2022/07/02 05:35:57;;;;;;;5.53;3.50;;;15.60;92.30;;;;;;5096154;28;20188;-73
2022/07/02 05:38:23;;;;;;;6.00;3.70;;;15.70;92.00;;;;;;5095934;28;20250;-73
2022/07/02 05:40:49;;;;;;;6.30;4.00;;;15.80;91.90;;;;;;5096047;28;20589;-73
2022/07/02 05:43:15;;;;;;;6.13;3.80;;;15.80;91.80;;;;;;5094785;28;20209;-73
2022/07/02 05:45:40;;;;;;;4.80;3.70;;;15.80;91.70;;;;;;5095412;28;20176;-73
2022/07/02 05:48:06;;;;;;;5.17;3.77;;;15.90;91.70;;;;;;5095775;28;20262;-73
2022/07/02 05:50:32;;;;;;;5.40;3.10;;;15.90;91.40;;;;;;5095555;28;20210;-73
2022/07/02 05:52:58;;;;;;;6.60;3.27;;;16.00;91.50;;;;;;5094454;28;20565;-74
2022/07/02 05:55:23;;;;;;;4.33;3.20;;;16.10;91.20;;;;;;5095682;28;20708;-74
2022/07/02 05:57:49;;;;;;;4.90;2.63;;;16.20;90.90;;;;;;5095600;28;20205;-74
2022/07/02 06:00:15;;;;;;;3.37;2.87;;;16.40;90.70;;;;;;5096178;28;20174;-72
2022/07/02 06:02:41;;;;;;;4.00;2.70;;;16.50;90.40;;;;;;5094601;28;20201;-72
2022/07/02 06:07:52;;;;;;;4.23;3.00;;;16.60;89.30;;;;;;5095741;28;20303;-73
2022/07/02 06:10:18;;;;;;;3.67;2.80;;;16.60;89.30;;;;;;5094980;28;20464;-72
2022/07/02 06:12:51;;;;;;;3.53;2.50;;;16.70;89.00;;;;;;5094429;28;20401;-72
2022/07/02 06:15:18;;;;;;;2.47;2.30;;;16.80;88.30;;;;;;5095110;28;20844;-73
2022/07/02 06:17:44;;;;;;;3.77;2.50;;;16.80;88.10;;;;;;5095445;28;20412;-72
2022/07/02 06:20:11;;;;;;;4.27;2.60;;;16.90;88.00;;;;;;5077739;28;20920;-73
2022/07/02 06:22:37;;;;;;;6.70;2.60;;;17.10;87.70;;;;;;5098936;28;20425;-73
2022/07/02 06:25:04;;;;;;;3.30;2.27;;;17.10;87.30;;;;;;5100853;28;20512;-72
2022/07/02 06:27:34;;;;;;;5.20;2.27;;;17.20;86.90;;;;;;5098475;28;20171;-72
2022/07/02 06:30:06;;;;;;;3.43;2.07;;;17.30;86.20;;;;;;5094582;28;20479;-73
2022/07/02 06:32:32;;;;;;;1.77;1.70;;;17.40;85.50;;;;;;5075872;28;20429;-72
2022/07/02 06:34:58;;;;;;;4.60;1.70;;;17.50;85.30;;;;;;5076301;28;20838;-73
2022/07/02 06:37:25;;;;;;;3.63;2.20;;;17.50;84.70;;;;;;5095945;28;20183;-73
2022/07/02 06:39:51;;;;;;;2.17;1.87;;;17.70;84.70;;;;;;5077087;28;20913;-74
2022/07/02 06:42:22;;;;;;;2.27;2.00;;;17.70;84.30;;;;;;5095133;28;20935;-73
2022/07/02 06:44:55;;;;;;;4.10;2.10;;;17.90;83.80;;;;;;5096081;28;20413;-73
2022/07/02 06:47:21;;;;;;;2.70;1.63;;;18.00;83.10;;;;;;5095939;28;20429;-73
2022/07/02 06:49:48;;;;;;;2.27;1.60;;;18.10;82.20;;;;;;5095525;28;20518;-73
2022/07/02 06:52:15;;;;;;;3.30;1.77;;;18.10;82.40;;;;;;5093002;28;20244;-74
2022/07/02 06:54:42;;;;;;;3.03;1.87;;;18.20;82.40;;;;;;5093236;28;20406;-73
2022/07/02 06:57:08;;;;;;;3.27;1.67;;;18.40;81.50;;;;;;5093563;28;20411;-73
2022/07/02 06:59:35;;;;;;;2.33;2.00;;;18.40;80.90;;;;;;5094265;28;20413;-73
2022/07/02 07:02:01;;;;;;;2.40;1.80;;;18.50;80.80;;;;;;5093334;28;20504;-73
2022/07/02 07:04:27;;;;;;;1.50;1.30;;;18.60;79.90;;;;;;5093577;28;20425;-73
2022/07/02 07:06:56;;;;;;;2.53;1.60;;;18.60;79.70;;;;;;5093165;28;20747;-73
2022/07/02 07:09:26;;;;;;;2.47;1.63;;;18.70;77.60;;;;;;5094112;28;20231;-72
2022/07/02 07:11:52;;;;;;;2.93;1.90;;;18.60;78.40;;;;;;5092146;28;20439;-73
2022/07/02 07:14:18;;;;;;;1.70;1.40;;;18.60;78.00;;;;;;5075310;28;20419;-73
2022/07/02 07:16:44;;;;;;;2.83;1.90;;;18.60;77.10;;;;;;5093717;28;20176;-73
2022/07/02 07:19:10;;;;;;;3.03;1.57;;;18.70;77.40;;;;;;5094445;28;20423;-73
2022/07/02 07:21:38;;;;;;;2.57;1.80;;;18.80;77.30;;;;;;5073640;28;20205;-74
2022/07/02 07:24:05;;;;;;;2.23;1.60;;;18.90;76.70;;;;;;5091845;28;20756;-73
2022/07/02 07:26:31;;;;;;;2.50;1.50;;;19.00;76.10;;;;;;5091570;28;20931;-74
2022/07/02 07:28:57;;;;;;;2.17;1.63;;;19.00;75.90;;;;;;5073830;28;20421;-74
2022/07/02 07:31:22;;;;;;;1.80;1.70;;;19.10;75.70;;;;;;5091706;28;20435;-73
2022/07/02 07:33:50;;;;;;;2.23;1.60;;;19.10;75.10;;;;;;5091257;28;20273;-72
2022/07/02 07:36:17;;;;;;;4.90;1.90;;;19.20;75.70;;;;;;5091590;28;20177;-73
2022/07/02 07:38:44;;;;;;;6.70;1.50;;;19.20;74.30;;;;;;5091441;28;20413;-73
2022/07/02 07:41:10;;;;;;;2.53;1.50;;;19.30;73.50;;;;;;5091458;28;20425;-73
2022/07/02 07:43:36;;;;;;;2.23;1.47;;;19.30;72.00;;;;;;5091369;28;20779;-74
2022/07/02 07:46:02;;;;;;;2.43;1.60;;;19.30;70.10;;;;;;5091761;28;20494;-74
2022/07/02 07:48:27;;;;;;;2.23;1.60;;;19.30;71.00;;;;;;5091775;28;20177;-75
2022/07/02 07:50:53;;;;;;;1.80;1.40;;;19.30;71.30;;;;;;5091544;28;20467;-73
2022/07/02 07:53:19;;;;;;;2.10;1.60;;;19.20;71.30;;;;;;5090748;28;20165;-73
2022/07/02 07:55:45;;;;;;;6.33;2.80;;;19.30;71.00;;;;;;5091148;28;20254;-73
2022/07/02 07:58:12;;;;;;;2.33;1.40;;;19.30;70.40;;;;;;5090740;28;20175;-73
2022/07/02 08:00:37;;;;;;;5.07;2.70;;;19.30;69.90;;;;;;5091145;28;20437;-74
2022/07/02 08:03:03;;;;;;;2.23;1.47;;;19.40;69.70;;;;;;5090233;28;20454;-74
2022/07/02 08:05:29;;;;;;;3.23;2.53;;;19.50;69.40;;;;;;5090117;28;20637;-73
2022/07/02 08:07:55;;;;;;;2.57;1.50;;;19.70;69.10;;;;;;5090973;28;20221;-74
2022/07/02 08:10:21;;;;;;;2.27;1.77;;;19.70;68.90;;;;;;5072543;28;20286;-73
2022/07/02 08:12:48;;;;;;;4.27;2.60;;;19.80;69.20;;;;;;5090691;28;20425;-73
2022/07/02 08:15:14;;;;;;;3.30;1.60;;;19.80;68.20;;;;;;5090935;28;20179;-73
2022/07/02 08:17:40;;;;;;;2.83;1.77;;;19.90;68.30;;;;;;5090786;28;20759;-73
2022/07/02 08:20:07;;;;;;;2.33;1.80;;;19.90;66.70;;;;;;5091092;28;20175;-73
2022/07/02 08:22:34;;;;;;;4.00;2.40;;;19.90;66.40;;;;;;5072056;28;20211;-73
2022/07/02 08:25:00;;;;;;;2.90;1.63;;;20.00;66.30;;;;;;5091068;28;20418;-73
2022/07/02 08:27:26;;;;;;;4.23;1.73;;;19.90;65.10;;;;;;5090713;28;20424;-73
2022/07/02 08:29:52;;;;;;;3.60;1.20;;;20.00;67.00;;;;;;5090727;28;21059;-72
2022/07/02 08:32:18;;;;;;;2.27;1.90;;;20.00;67.30;;;;;;5090150;28;20196;-72
2022/07/02 08:34:44;;;;;;;1.63;1.30;;;20.10;66.00;;;;;;5090717;28;20471;-73
2022/07/02 08:37:09;;;;;;;3.17;1.57;;;20.10;66.30;;;;;;5090780;28;20413;-73
2022/07/02 08:39:35;;;;;;;1.50;1.40;;;20.20;65.80;;;;;;5090955;28;20178;-72
2022/07/02 08:42:03;;;;;;;4.03;1.83;;;20.30;65.40;;;;;;5090356;28;20204;-73
2022/07/02 08:44:31;;;;;;;3.00;1.40;;;20.40;64.50;;;;;;5091002;28;20509;-73
2022/07/02 08:46:58;;;;;;;2.97;1.80;;;20.50;63.80;;;;;;5091173;28;20406;-74
2022/07/02 08:49:26;;;;;;;2.60;1.20;;;20.60;64.20;;;;;;5090635;28;20465;-73
2022/07/02 08:52:02;;;;;;;1.53;1.50;;;20.70;63.80;;;;;;5071832;28;20469;-73
2022/07/02 08:54:28;;;;;;;2.13;1.40;;;20.70;63.50;;;;;;5090922;28;20515;-72
2022/07/02 08:56:55;;;;;;;2.10;1.73;;;20.70;64.10;;;;;;5091018;28;20502;-73
2022/07/02 08:59:21;;;;;;;1.60;1.60;;;20.70;63.80;;;;;;5072565;28;20944;-72
2022/07/02 09:01:52;;;;;;;2.13;1.50;;;20.90;63.40;;;;;;5090311;28;20459;-72
2022/07/02 09:04:19;;;;;;;3.40;2.50;;;21.10;60.70;;;;;;5090997;28;20854;-72
2022/07/02 09:06:47;;;;;;;2.90;1.70;;;21.10;60.10;;;;;;5091303;28;20522;-73
2022/07/02 09:09:12;;;;;;;3.20;1.60;;;21.10;59.70;;;;;;5075829;28;20476;-72
2022/07/02 09:11:39;;;;;;;2.00;1.50;;;21.00;59.30;;;;;;5075960;28;20974;-74
2022/07/02 09:14:06;;;;;;;3.50;1.60;;;21.10;59.30;;;;;;5093891;28;20180;-73
2022/07/02 09:16:33;;;;;;;1.63;1.40;;;21.20;59.90;;;;;;5094359;28;20495;-74
2022/07/02 09:18:59;;;;;;;1.60;1.40;;;21.40;58.90;;;;;;5076271;28;20513;-73
2022/07/02 09:21:24;;;;;;;2.57;2.00;;;21.50;58.70;;;;;;5094187;28;20907;-73
2022/07/02 09:23:50;;;;;;;3.00;1.73;;;21.50;58.50;;;;;;5093734;28;20738;-72
2022/07/02 09:26:24;;;;;;;2.03;1.83;;;21.50;58.40;;;;;;5094114;28;20193;-73
2022/07/02 09:29:00;;;;;;;1.60;1.50;;;21.50;58.90;;;;;;5093934;28;20411;-73
2022/07/02 09:31:27;;;;;;;1.93;1.77;;;21.50;58.90;;;;;;5093543;28;20435;-74
2022/07/02 09:33:53;;;;;;;2.43;1.70;;;21.60;58.00;;;;;;5093610;28;20422;-73
2022/07/02 09:36:20;;;;;;;2.37;2.03;;;21.70;58.40;;;;;;5094309;28;20922;-72
2022/07/02 09:38:49;;;;;;;2.90;1.90;;;21.80;58.40;;;;;;5094135;28;20414;-74
2022/07/02 09:41:19;;;;;;;4.10;1.53;;;21.80;58.80;;;;;;5094046;28;20441;-74
2022/07/02 09:43:44;;;;;;;2.30;1.93;;;21.90;58.80;;;;;;5093266;28;20486;-74
2022/07/02 09:46:15;;;;;;;3.10;1.97;;;22.00;57.70;;;;;;5094921;28;20451;-74
2022/07/02 09:48:41;;;;;;;2.57;1.80;;;22.10;56.10;;;;;;5094219;28;20255;-73
2022/07/02 09:51:07;;;;;;;1.63;1.50;;;22.10;55.30;;;;;;5095686;28;20472;-74
2022/07/02 09:53:33;;;;;;;1.70;1.40;;;22.10;55.80;;;;;;5095238;28;20408;-73
2022/07/02 09:56:02;;;;;;;2.53;1.53;;;22.20;55.70;;;;;;5095695;28;20228;-72
2022/07/02 09:58:28;;;;;;;2.10;1.40;;;22.20;55.20;;;;;;5096207;28;20414;-73
2022/07/02 10:00:59;;;;;;;1.83;1.33;;;22.20;55.70;;;;;;5096321;28;20440;-74
2022/07/02 10:03:27;;;;;;;1.80;1.30;;;22.30;55.40;;;;;;5096596;28;20424;-73
2022/07/02 10:05:53;;;;;;;2.00;1.40;;;22.40;54.90;;;;;;5096574;28;20958;-73
2022/07/02 10:08:19;;;;;;;2.17;1.43;;;22.40;54.60;;;;;;5096773;28;20455;-73
2022/07/02 10:10:46;;;;;;;2.00;1.40;;;22.50;53.30;;;;;;5095179;28;20212;-73
2022/07/02 10:13:13;;;;;;;2.20;1.70;;;22.60;52.40;;;;;;5092496;28;21037;-73
2022/07/02 10:16:00;;;;;;;2.00;1.70;;;22.70;51.70;;;;;;5093253;28;20409;-74
2022/07/02 10:18:27;;;;;;;2.83;1.33;;;22.90;50.50;;;;;;5092826;28;20435;-75
2022/07/02 10:21:08;;;;;;;2.10;1.30;;;23.20;50.50;;;;;;5104659;28;20440;-75
2022/07/02 10:23:34;;;;;;;2.33;1.40;;;23.50;50.20;;;;;;5077074;28;20481;-73
2022/07/02 10:26:00;;;;;;;4.47;1.33;;;23.80;48.30;;;;;;5093915;28;20502;-75
2022/07/02 10:28:26;;;;;;;3.67;1.40;;;24.00;47.90;;;;;;5093192;28;20256;-74
2022/07/02 10:30:54;;;;;;;2.23;1.40;;;23.90;47.80;;;;;;5093119;28;20711;-73
2022/07/02 10:33:38;;;;;;;2.67;1.30;;;23.80;47.40;;;;;;5092628;28;20178;-75
2022/07/02 10:36:07;;;;;;;1.63;1.30;;;23.90;46.90;;;;;;5094921;28;20412;-74
2022/07/02 10:38:35;;;;;;;2.00;1.40;;;24.20;47.90;;;;;;5097395;28;20464;-74
2022/07/02 10:41:02;;;;;;;1.70;1.40;;;24.20;46.60;;;;;;5094062;28;20445;-74
2022/07/02 10:43:29;;;;;;;2.33;1.60;;;24.60;46.60;;;;;;5092165;28;20904;-73
2022/07/02 10:46:22;;;;;;;3.67;1.80;;;24.80;47.00;;;;;;5092344;28;20427;-73
2022/07/02 10:48:48;;;;;;;3.07;1.50;;;25.20;46.10;;;;;;5089471;28;20786;-74
2022/07/02 10:51:35;;;;;;;3.17;1.97;;;25.00;44.70;;;;;;5092117;28;20491;-73
2022/07/02 10:54:06;;;;;;;2.33;1.60;;;24.70;46.20;;;;;;5092032;28;20405;-73
2022/07/02 10:56:46;;;;;;;1.67;1.63;;;24.80;46.30;;;;;;5092732;28;20425;-74
2022/07/02 10:59:25;;;;;;;4.20;1.47;;;24.90;46.10;;;;;;5092454;28;21094;-73
2022/07/02 11:02:01;;;;;;;2.27;1.73;;;25.00;45.90;;;;;;5074025;28;20973;-73
2022/07/02 11:04:27;;;;;;;1.63;1.30;;;25.20;46.20;;;;;;5092333;28;20446;-73
2022/07/02 11:07:12;;;;;;;1.50;1.33;;;25.40;45.40;;;;;;5092773;28;20455;-73
2022/07/02 11:09:57;;;;;;;1.63;1.30;;;25.60;45.40;;;;;;5092209;28;20210;-73
2022/07/02 11:12:46;;;;;;;2.00;1.33;;;25.10;44.70;;;;;;5073274;28;20438;-74
2022/07/02 11:15:21;;;;;;;1.70;1.40;;;25.20;46.30;;;;;;5092116;28;20519;-73
2022/07/02 11:17:52;;;;;;;1.30;1.23;;;25.60;44.70;;;;;;5092309;28;20878;-74
2022/07/02 11:20:27;;;;;;;2.03;1.60;;;25.50;45.50;;;;;;5092643;28;20439;-74
2022/07/02 11:22:55;;;;;;;2.93;1.33;;;25.50;45.80;;;;;;5091925;28;20779;-75
2022/07/02 11:25:21;;;;;;;1.87;1.63;;;25.80;45.80;;;;;;5092314;28;20423;-72
2022/07/02 11:27:58;;;;;;;3.33;1.40;;;25.70;44.50;;;;;;5094013;28;20419;-73
2022/07/02 11:30:28;;;;;;;2.87;1.33;;;25.50;45.00;;;;;;5093750;28;20807;-73
2022/07/02 11:32:54;;;;;;;2.27;1.40;;;25.30;44.90;;;;;;5092328;28;20491;-73
2022/07/02 11:35:20;;;;;;;8.63;2.13;;;25.30;44.90;;;;;;5075099;28;20860;-73
2022/07/02 11:37:46;;;;;;;1.73;1.17;;;25.50;44.20;;;;;;5094859;28;20180;-72
2022/07/02 11:40:23;;;;;;;3.40;2.00;;;25.70;43.40;;;;;;5095056;28;20408;-73
2022/07/02 11:42:49;;;;;;;3.33;1.33;;;26.20;44.10;;;;;;5095203;28;20452;-72
2022/07/02 11:45:15;;;;;;;2.70;1.20;;;25.90;42.70;;;;;;5097400;28;20416;-73
2022/07/02 11:47:49;;;;;;;1.30;1.30;;;26.10;42.30;;;;;;5097047;28;20473;-72
2022/07/02 11:50:31;;;;;;;1.73;1.50;;;26.10;42.70;;;;;;5097640;28;20461;-72
2022/07/02 11:52:58;;;;;;;1.17;1.07;;;26.20;41.90;;;;;;5095822;28;20420;-73
2022/07/02 11:55:24;;;;;;;1.10;1.10;;;26.30;42.80;;;;;;5096486;28;20412;-73
2022/07/02 11:57:51;;;;;;;1.80;1.33;;;26.40;41.00;;;;;;5096241;28;20418;-73
2022/07/02 12:00:18;;;;;;;1.93;1.40;;;26.50;41.00;;;;;;5092164;28;20831;-73
2022/07/02 12:02:44;;;;;;;1.70;1.40;;;25.70;41.40;;;;;;5096224;28;20459;-73
2022/07/02 12:05:17;;;;;;;2.30;1.70;;;25.70;41.60;;;;;;5096957;28;20518;-73
2022/07/02 12:07:44;;;;;;;2.00;1.40;;;25.60;43.10;;;;;;5096513;28;20199;-72
2022/07/02 12:10:14;;;;;;;2.17;1.60;;;25.90;43.10;;;;;;5095699;28;20451;-72
2022/07/02 12:12:40;;;;;;;1.87;1.40;;;26.00;42.00;;;;;;5095344;28;20424;-73
2022/07/02 12:15:07;;;;;;;2.57;1.70;;;25.60;42.40;;;;;;5095972;28;20920;-72
2022/07/02 12:17:35;;;;;;;2.57;1.47;;;26.00;42.60;;;;;;5094944;28;20774;-74
2022/07/02 12:20:06;;;;;;;1.70;1.40;;;26.10;42.00;;;;;;5094435;28;20444;-73
2022/07/02 12:22:33;;;;;;;3.57;1.63;;;26.50;42.30;;;;;;5094444;28;20440;-73
2022/07/02 12:24:59;;;;;;;2.53;1.70;;;26.70;41.50;;;;;;5093934;28;20421;-73
2022/07/02 12:27:25;;;;;;;1.80;1.73;;;27.10;37.50;;;;;;5092025;28;20415;-73
2022/07/02 12:29:56;;;;;;;1.83;1.37;;;26.50;39.80;;;;;;5090975;28;20274;-73
2022/07/02 12:32:31;;;;;;;5.87;1.53;;;26.70;41.00;;;;;;5090292;28;20925;-73
2022/07/02 12:35:09;;;;;;;2.67;1.60;;;26.70;41.10;;;;;;5091071;28;20416;-73
2022/07/02 12:37:37;;;;;;;2.93;2.07;;;26.50;41.90;;;;;;5091306;28;20931;-73
2022/07/02 12:40:07;;;;;;;2.50;1.47;;;26.80;42.00;;;;;;5072988;28;20419;-73
2022/07/02 12:42:57;;;;;;;2.53;1.50;;;27.00;40.30;;;;;;5091343;28;21142;-73
2022/07/02 12:45:33;;;;;;;1.33;1.13;;;26.70;41.50;;;;;;5096139;28;20401;-72
2022/07/02 12:48:07;;;;;;;2.60;1.60;;;26.70;41.50;;;;;;5095277;28;20790;-74
2022/07/02 12:50:44;;;;;;;2.00;1.47;;;27.20;41.10;;;;;;5095195;28;20492;-73